Jackson, MS (39201)

6:47 AM CDT on April 30, 2017 (GMT -0500)
Belhaven | | Change Station

Elev 318 ft 32.32 °N, 90.16 °W | Updated 24 seconds ago

Rain
Rain
76.5 °F
Feels Like 77 °F
N
0.0
Wind Variable Wind from SW
Gusts 0.0 mph

Today
High -- | Low -- °F
--% Chance of Precip.
Yesterday
High -- | Low -- °F
Precip. -- in
Pressure 29.80 in
Visibility 10.0 miles
Clouds Few 2800 ft
Scattered Clouds 3800 ft
Mostly Cloudy 10000 ft
Heat Index 77 °F
Dew Point 74 °F
Humidity 91%
Rainfall 0.00 in
Snow Depth Not available.
6:15 AM 7:41 PM
Waxing Crescent, 22% visible
SPECI KHKS 301141Z 14009KT 10SM -TSRA FEW028 SCT038 BKN100 24/21 A2980 RMK AO2 LTG DSNT ALQDS RAB04 TSE04B23 P0001 T02440206
Pressure 29.80 in
Visibility 10.0 miles
Clouds Few 2800 ft
Scattered Clouds 3800 ft
Mostly Cloudy 10000 ft
Heat Index 77 °F
Dew Point 74 °F
Humidity 91%
Rainfall 0.00 in
Snow Depth Not available.
6:15 AM 7:41 PM
Waxing Crescent, 22% visible
SPECI KHKS 301141Z 14009KT 10SM -TSRA FEW028 SCT038 BKN100 24/21 A2980 RMK AO2 LTG DSNT ALQDS RAB04 TSE04B23 P0001 T02440206

Get Severe Weather Alerts

Thanks for signing up!

Be on the lookout for a verification email in your inbox.

You'll start receiving the daily forecast at 8 AM.

×

10-Day Weather Forecast

Almanac

Astronomy

Apr. 30, 2017 Rise Set
Actual Time
Civil Twilight
Nautical Twilight
Astronomical Twilight
Moon
Length of Visible Light
Length of Day
Tomorrow will be .
, % of the Moon is Illuminated

Today's Extremes

State Highs State Lows

Community

WunderPhotos

WunderBlog® & News

Nearby

Air Quality

  Air Quality AQ Index Pollutant
Not available.

Snow Depth

Station Depth Elevation

Earthquake Activity

City Distance Mag. Time & Date
Minimum magnitude displayed is 2.5.

Coastal Water Temperatures

Place Temperature

Stations

Nearby Weather Stations

Station Location Temp. Windchill Dew Point Humidity Wind Precip. Elev Updated Type
                   

Watches & Warnings

There are currently no watches in effect.